createdAt,value
2018-12-27T00:00:17.754Z,24.7
2018-12-27T00:05:17.632Z,16
2018-12-27T00:10:17.774Z,31.7
2018-12-27T00:15:17.705Z,19.6
2018-12-27T00:20:17.800Z,31.3
2018-12-27T00:25:17.660Z,23.4
2018-12-27T00:30:17.622Z,31.2
2018-12-27T00:35:17.603Z,31.8
2018-12-27T00:40:18.157Z,24.9
2018-12-27T00:45:17.230Z,31.4
2018-12-27T00:50:17.412Z,31.5
2018-12-27T00:55:17.331Z,30.5
2018-12-27T01:00:17.463Z,21.8
2018-12-27T01:05:17.412Z,27.9
2018-12-27T01:10:18.686Z,26
2018-12-27T01:15:18.681Z,31
2018-12-27T01:20:17.996Z,19.3
2018-12-27T01:25:17.220Z,28.1
2018-12-27T01:30:17.164Z,23.1
2018-12-27T01:35:22.103Z,25.9
2018-12-27T01:40:17.662Z,15.8
2018-12-27T01:45:17.794Z,27.3
2018-12-27T01:50:17.819Z,17
2018-12-27T01:55:17.791Z,26.7
2018-12-27T02:00:18.302Z,24.2
2018-12-27T02:05:17.793Z,26.1
2018-12-27T02:10:17.262Z,25.6
2018-12-27T02:15:17.622Z,26.9
2018-12-27T02:20:17.970Z,13.4
2018-12-27T02:25:17.138Z,25.2
2018-12-27T02:30:17.109Z,25.6
2018-12-27T02:35:17.008Z,22.8
2018-12-27T02:40:17.916Z,25.9
2018-12-27T02:45:17.179Z,25.8
2018-12-27T02:50:17.228Z,25.2
2018-12-27T02:55:17.425Z,19.5
2018-12-27T03:00:17.399Z,14.4
2018-12-27T03:05:22.316Z,25.2
2018-12-27T03:10:17.666Z,25.4
2018-12-27T03:15:17.885Z,24.7
2018-12-27T03:20:17.026Z,23.3
2018-12-27T03:25:16.934Z,17.5
2018-12-27T03:30:17.046Z,22.9
2018-12-27T03:35:17.196Z,22.4
2018-12-27T03:40:17.313Z,21.9
2018-12-27T03:45:17.506Z,21.5
2018-12-27T03:50:18.591Z,21.5
2018-12-27T03:55:17.502Z,16
2018-12-27T04:00:17.504Z,21.9
2018-12-27T04:05:17.433Z,14.8
2018-12-27T04:10:17.542Z,22.9
2018-12-27T04:15:17.471Z,22.1
2018-12-27T04:20:17.659Z,22.6
2018-12-27T04:25:17.618Z,21.8
2018-12-27T04:30:17.528Z,18.3
2018-12-27T04:35:17.459Z,22.8
2018-12-27T04:40:17.600Z,14.3
2018-12-27T04:45:17.499Z,13
2018-12-27T04:50:17.407Z,24.8
2018-12-27T04:55:17.544Z,24.3
2018-12-27T05:00:17.475Z,23.8
2018-12-27T05:05:17.443Z,25
2018-12-27T05:10:17.523Z,15.3
2018-12-27T05:15:17.433Z,24.4
2018-12-27T05:20:17.701Z,25.4
2018-12-27T05:25:17.735Z,23.8
2018-12-27T05:30:17.960Z,25.5
2018-12-27T05:35:17.060Z,18
2018-12-27T05:40:17.389Z,24.9
2018-12-27T05:45:17.609Z,18.3
2018-12-27T05:50:17.849Z,25.2
2018-12-27T05:55:17.961Z,23.7
2018-12-27T06:00:16.988Z,24.4
2018-12-27T06:05:16.906Z,23.7
2018-12-27T06:10:17.110Z,20.2
2018-12-27T06:15:17.290Z,22.3
2018-12-27T06:20:18.406Z,12.7
2018-12-27T06:25:17.757Z,14.7
2018-12-27T06:30:17.674Z,20.9
2018-12-27T06:35:19.167Z,21.9
2018-12-27T06:40:17.473Z,13.7
2018-12-27T06:45:18.803Z,20.8
2018-12-27T06:50:17.732Z,15.1
2018-12-27T06:55:18.672Z,12.2
2018-12-27T07:00:17.620Z,21.2
2018-12-27T07:05:17.867Z,19.2
2018-12-27T07:10:17.156Z,19.7
2018-12-27T07:15:17.340Z,20.3
2018-12-27T07:20:17.841Z,12.1
2018-12-27T07:25:22.779Z,15.3
2018-12-27T07:30:17.946Z,20.5
2018-12-27T07:35:16.974Z,20.7
2018-12-27T07:40:17.518Z,19.3
2018-12-27T07:45:17.601Z,19.1
2018-12-27T07:50:17.837Z,21.6
2018-12-27T07:55:18.432Z,12.6
2018-12-27T08:00:18.557Z,21.6
2018-12-27T08:05:17.836Z,17
2018-12-27T08:10:17.177Z,21.7
2018-12-27T08:15:22.187Z,24.1
2018-12-27T08:20:17.243Z,15
2018-12-27T08:25:23.384Z,24
2018-12-27T08:30:17.507Z,13.5
2018-12-27T08:35:17.551Z,14.9
2018-12-27T08:40:22.847Z,27.6
2018-12-27T08:45:17.783Z,16.9
2018-12-27T08:50:17.740Z,27.7
2018-12-27T08:55:17.960Z,27.4
2018-12-27T09:00:17.099Z,19.5
2018-12-27T09:05:19.423Z,27.3
2018-12-27T09:10:17.528Z,20.4
2018-12-27T09:15:17.772Z,28.6
2018-12-27T09:20:17.089Z,29.6
2018-12-27T09:25:17.346Z,29.6
2018-12-27T09:30:17.346Z,31
2018-12-27T09:35:17.335Z,17.5
2018-12-27T09:40:17.635Z,29.7
2018-12-27T09:45:17.838Z,31.4
2018-12-27T09:50:17.993Z,18.4
2018-12-27T09:55:17.134Z,31.8
2018-12-27T10:00:17.403Z,21.7
2018-12-27T10:05:17.471Z,31.9
2018-12-27T10:10:18.031Z,31.3
2018-12-27T10:15:17.222Z,22.4
2018-12-27T10:20:17.594Z,32.7
2018-12-27T10:25:17.851Z,32.2
2018-12-27T10:30:18.122Z,32.1
2018-12-27T10:35:17.160Z,23.3
2018-12-27T10:40:17.423Z,31.6
2018-12-27T10:45:17.309Z,31.7
2018-12-27T10:50:22.177Z,26.3
2018-12-27T10:55:17.071Z,23.9
2018-12-27T11:00:16.986Z,34.8
2018-12-27T11:05:16.885Z,29.6
2018-12-27T11:10:18.107Z,33.7
2018-12-27T11:15:17.038Z,24.4
2018-12-27T11:20:17.458Z,33.8
2018-12-27T11:25:17.407Z,26.1
2018-12-27T11:30:17.476Z,26.9
2018-12-27T11:35:17.473Z,24.1
2018-12-27T11:40:17.943Z,33.1
2018-12-27T11:45:17.055Z,34
2018-12-27T11:50:17.255Z,35
2018-12-27T11:55:17.192Z,34.5
2018-12-27T12:00:17.542Z,28.9
2018-12-27T12:05:17.791Z,35.9
2018-12-27T12:10:17.073Z,23.2
2018-12-27T12:15:17.382Z,35.3
2018-12-27T12:20:17.680Z,27.4
2018-12-27T12:25:17.931Z,21.2
2018-12-27T12:30:17.319Z,35.7
2018-12-27T12:35:18.619Z,36.4
2018-12-27T12:40:17.917Z,35.7
2018-12-27T12:45:17.037Z,29.9
2018-12-27T12:50:17.407Z,39
2018-12-27T12:55:18.615Z,26.2
2018-12-27T13:00:17.755Z,25.7
2018-12-27T13:05:17.815Z,32.2
2018-12-27T13:10:17.187Z,37.2
2018-12-27T13:15:17.214Z,24
2018-12-27T13:20:17.344Z,29
2018-12-27T13:25:17.535Z,28.2
2018-12-27T13:30:17.674Z,26.2
2018-12-27T13:35:22.605Z,24.6
2018-12-27T13:40:18.001Z,28
2018-12-27T13:45:17.594Z,24.9
2018-12-27T13:50:18.141Z,24.5
2018-12-27T13:55:17.162Z,24.7
2018-12-27T14:00:58.418Z,37.9
2018-12-27T14:05:17.566Z,37.3
2018-12-27T14:10:22.699Z,30.1
2018-12-27T14:15:19.011Z,35.9
2018-12-27T14:20:22.119Z,25.2
2018-12-27T14:25:17.650Z,33.2
2018-12-27T14:30:17.716Z,35.9
2018-12-27T14:35:22.679Z,35
2018-12-27T14:40:17.899Z,37
2018-12-27T14:45:16.945Z,35.1
2018-12-27T14:50:21.919Z,20.1
2018-12-27T14:55:17.009Z,35.5
2018-12-27T15:00:16.973Z,35.2
2018-12-27T15:05:17.823Z,36
2018-12-27T15:10:17.131Z,23.3
2018-12-27T15:15:22.473Z,20.5
2018-12-27T15:20:22.626Z,23.7
2018-12-27T15:25:18.339Z,21.9
2018-12-27T15:30:18.770Z,28.1
2018-12-27T15:35:23.850Z,18.6
2018-12-27T15:40:16.939Z,28.6
2018-12-27T15:45:16.828Z,25.6
2018-12-27T15:50:17.869Z,25.4
2018-12-27T15:55:17.768Z,36
2018-12-27T16:00:17.794Z,25
2018-12-27T16:05:18.179Z,26.8
2018-12-27T16:10:17.347Z,25.2
2018-12-27T16:15:22.826Z,28
2018-12-27T16:20:17.049Z,23.5
2018-12-27T16:25:17.465Z,37.7
2018-12-27T16:30:17.665Z,36
2018-12-27T16:35:17.854Z,26.9
2018-12-27T16:40:16.998Z,28
2018-12-27T16:45:17.501Z,35.9
2018-12-27T16:50:17.443Z,24.3
2018-12-27T16:55:17.513Z,37.7
2018-12-27T17:00:17.893Z,34.2
2018-12-27T17:05:18.321Z,36.5
2018-12-27T17:10:17.530Z,36.1
2018-12-27T17:15:17.411Z,31.6
2018-12-27T17:20:18.889Z,37.9
2018-12-27T17:25:17.809Z,26.1
2018-12-27T17:30:18.763Z,37.9
2018-12-27T17:35:17.731Z,39.5
2018-12-27T17:40:21.868Z,39.6
2018-12-27T17:45:17.989Z,26.6
2018-12-27T17:50:17.062Z,39
2018-12-27T17:55:16.996Z,28.6
2018-12-27T18:00:17.137Z,32.4
2018-12-27T18:05:17.045Z,30
2018-12-27T18:10:17.744Z,39.9
2018-12-27T18:15:18.895Z,31.1
2018-12-27T18:20:17.454Z,39.1
2018-12-27T18:25:22.570Z,37.9
2018-12-27T18:30:17.652Z,39.7
2018-12-27T18:35:17.830Z,33.1
2018-12-27T18:40:17.071Z,27
2018-12-27T18:45:23.148Z,19.8
2018-12-27T18:50:22.092Z,20.8
2018-12-27T18:55:20.638Z,22.3
2018-12-27T19:00:17.679Z,24.2
2018-12-27T19:05:17.811Z,25
2018-12-27T19:10:17.028Z,40.5
2018-12-27T19:15:17.146Z,40.6
2018-12-27T19:20:17.661Z,39.9
2018-12-27T19:25:17.815Z,27.4
2018-12-27T19:30:18.253Z,41.9
2018-12-27T19:35:17.316Z,40
2018-12-27T19:40:22.614Z,33.4
2018-12-27T19:45:18.644Z,41.1
2018-12-27T19:50:20.503Z,40.4
2018-12-27T19:55:18.516Z,24.9
2018-12-27T20:00:22.461Z,23.9
2018-12-27T20:05:17.371Z,28.3
2018-12-27T20:10:17.465Z,24.3
2018-12-27T20:15:22.639Z,42.9
2018-12-27T20:20:18.483Z,44.1
2018-12-27T20:25:22.429Z,30.1
2018-12-27T20:30:17.320Z,43.1
2018-12-27T20:35:17.332Z,28.5
2018-12-27T20:40:17.466Z,45.3
2018-12-27T20:45:17.617Z,44.4
2018-12-27T20:50:17.661Z,44.7
2018-12-27T20:55:17.545Z,27.2
2018-12-27T21:00:22.465Z,35.1
2018-12-27T21:05:17.457Z,46.6
2018-12-27T21:10:17.673Z,44.5
2018-12-27T21:15:17.784Z,45.1
2018-12-27T21:20:16.896Z,45.9
2018-12-27T21:25:18.169Z,30.4
2018-12-27T21:30:17.163Z,44.8
2018-12-27T21:35:18.091Z,44.9
2018-12-27T21:40:17.600Z,33.1
2018-12-27T21:45:22.562Z,44.1
2018-12-27T21:50:17.439Z,30.4
2018-12-27T21:55:18.540Z,46
2018-12-27T22:00:17.525Z,45.8
2018-12-27T22:05:18.799Z,43.4
2018-12-27T22:10:17.127Z,43.7
2018-12-27T22:15:17.652Z,45.9
2018-12-27T22:20:22.908Z,42.6
2018-12-27T22:25:16.945Z,43.4
2018-12-27T22:30:17.087Z,45
2018-12-27T22:35:16.988Z,36.8
2018-12-27T22:40:17.457Z,45.5
2018-12-27T22:45:17.423Z,34.2
2018-12-27T22:50:17.885Z,36.7
2018-12-27T22:55:23.254Z,44.6
2018-12-27T23:00:17.172Z,44.7
2018-12-27T23:05:27.761Z,44.5
2018-12-27T23:10:17.068Z,33.1
2018-12-27T23:15:16.979Z,43.1
2018-12-27T23:20:17.249Z,44.2
2018-12-27T23:25:17.143Z,46.2
2018-12-27T23:30:17.430Z,45.7
2018-12-27T23:35:17.580Z,44.9
2018-12-27T23:40:18.116Z,25
2018-12-27T23:45:17.416Z,44.8
2018-12-27T23:50:17.295Z,33.3
2018-12-27T23:55:17.184Z,44.5
